KAIZ

Lee C Fine Memorial Airport

Kaiser/Lake Ozark, Missouri, USA
METAR KAIZ 151156Z AUTO 23004KT 10SM OVC060 M01/M03 A3013 RMK AO2 SLP212 T10061033 10006 21022 55000 FZRANO
Observed Flight Rules
Dec-15 @ 11:56 UTC (2 hours ago) Visual Flight Rules
Wind Visibility Clouds
230° at 4 knots 10 miles
  • Overcast at 6,000' AGL
Temperatures Readings
Current -1°C / 30°F
Dewpoint -3°C / 27°F
Humidity 86%
Altimeter 30.13" Hg
Pressure 1021.2 hPa
Elevation 265
METAR KAIZ 151156Z AUTO 23004KT 10SM OVC060 M01/M03 A3013 RMK AO2 SLP212 T10061033 10006 21022 55000 FZRANO
Observed Flight Rules
Dec-15 @ 11:56 UTC
(2 hours ago)
VFR
Wind Visibility
230° at 4 knots 10 miles
Clouds
  • Overcast at 6,000' AGL
Temperature Dewpoint
-1°C / 30°F -3°C / 27°F
Humidity Altimeter Pressure
86% 30.13" Hg 1021.2 hPa